Time;durP1;ratioP1;P1;durP2;ratioP2;P2;SDS_P1;SDS_P2;PMS_P1;PMS_P2;Temp;Humidity;BMP_temperature;BMP_pressure;BME280_temperature;BME280_humidity;BME280_pressure;Samples;Min_cycle;Max_cycle;Signal;HPM_P1;HPM_P2
2023/09/28 00:02:34;;;;;;;5.03;3.03;;;;;;;8.25;65.04;97354.72;6318330;28;20189;-69
2023/09/28 00:05:36;;;;;;;5.15;3.00;;;;;;;8.21;64.91;97361.03;6318010;28;20052;-70
2023/09/28 00:08:41;;;;;;;6.22;3.38;;;;;;;8.14;65.43;97352.63;6318630;28;20040;-69
2023/09/28 00:11:46;;;;;;;4.57;2.80;;;;;;;8.27;65.46;97355.50;6318946;28;20051;-70
2023/09/28 00:14:50;;;;;;;7.78;3.10;;;;;;;8.36;65.03;97359.47;6319479;28;20044;-69
2023/09/28 00:17:54;;;;;;;4.95;2.85;;;;;;;8.37;65.19;97355.91;6319035;28;20412;-69
2023/09/28 00:20:58;;;;;;;4.25;2.70;;;;;;;8.34;65.18;97349.03;6319039;28;20036;-69
2023/09/28 00:24:02;;;;;;;4.88;2.80;;;;;;;8.39;65.05;97364.59;6318737;28;20117;-71
2023/09/28 00:27:06;;;;;;;4.78;3.05;;;;;;;8.44;65.15;97368.69;6323326;28;20413;-69
2023/09/28 00:30:18;;;;;;;3.20;2.60;;;;;;;8.52;64.88;97369.16;6323482;28;20150;-70
2023/09/28 00:33:23;;;;;;;5.32;2.70;;;;;;;8.65;64.67;97365.94;6322129;28;20052;-69
2023/09/28 00:36:27;;;;;;;4.43;2.50;;;;;;;8.85;64.28;97367.56;6323635;28;20097;-69
2023/09/28 00:39:31;;;;;;;6.07;3.08;;;;;;;8.95;63.65;97359.16;6323498;28;20040;-69
2023/09/28 00:42:38;;;;;;;5.50;2.95;;;;;;;9.08;63.63;97369.03;6323480;28;20044;-69
2023/09/28 00:45:44;;;;;;;4.45;2.80;;;;;;;9.15;63.47;97371.28;6323413;28;20498;-69
2023/09/28 00:49:12;;;;;;;3.15;2.85;;;;;;;9.24;63.49;97369.94;6321105;28;20484;-70
2023/09/28 00:52:17;;;;;;;4.35;2.53;;;;;;;9.30;63.13;97374.88;6323192;28;20040;-69
2023/09/28 00:55:27;;;;;;;6.88;2.85;;;;;;;9.42;62.83;97376.84;6323138;28;20406;-69
2023/09/28 00:58:32;;;;;;;4.53;2.92;;;;;;;9.54;62.57;97380.66;6323400;28;20047;-70
2023/09/28 01:01:35;;;;;;;8.95;3.53;;;;;;;9.62;62.63;97375.84;6323102;28;20044;-70
2023/09/28 01:04:39;;;;;;;8.85;3.55;;;;;;;9.59;62.35;97367.25;6322607;28;20081;-69
2023/09/28 01:07:40;;;;;;;7.63;4.10;;;;;;;9.74;62.15;97384.84;6321169;28;20044;-68
2023/09/28 01:10:45;;;;;;;8.00;4.60;;;;;;;9.74;62.23;97374.34;6321904;28;20138;-68
2023/09/28 01:13:47;;;;;;;6.90;3.53;;;;;;;9.68;62.32;97369.38;6321888;28;20063;-68
2023/09/28 01:16:51;;;;;;;6.53;3.58;;;;;;;9.75;62.39;97376.03;6322400;28;20429;-69
2023/09/28 01:19:59;;;;;;;7.03;3.90;;;;;;;9.80;62.26;97379.25;6321690;28;20048;-69
2023/09/28 01:23:02;;;;;;;8.18;4.15;;;;;;;9.85;62.15;97387.75;6320370;28;20556;-69
2023/09/28 01:26:07;;;;;;;5.78;3.78;;;;;;;9.83;62.35;97384.34;6320208;28;20051;-69
2023/09/28 01:29:10;;;;;;;6.50;3.58;;;;;;;9.83;62.41;97392.22;6322033;28;20371;-69
2023/09/28 01:32:12;;;;;;;6.30;4.15;;;;;;;9.74;62.53;97390.09;6322373;28;20388;-69
2023/09/28 01:35:13;;;;;;;7.13;4.28;;;;;;;9.65;62.98;97387.94;6322175;28;20047;-70
2023/09/28 01:38:39;;;;;;;7.50;4.53;;;;;;;9.60;63.82;97382.09;6322421;28;20529;-69
2023/09/28 01:41:43;;;;;;;10.13;4.05;;;;;;;9.56;63.68;97393.69;6324106;28;20129;-72
2023/09/28 01:44:47;;;;;;;7.32;4.32;;;;;;;9.55;63.88;97394.63;6323736;28;20452;-69
2023/09/28 01:47:48;;;;;;;;;;;;;;;9.51;63.97;97399.19;6322106;28;20052;-69
2023/09/28 01:50:54;;;;;;;8.60;4.63;;;;;;;9.50;63.82;97402.75;6322193;28;19920;-70
2023/09/28 01:53:58;;;;;;;9.07;5.28;;;;;;;9.58;63.92;97404.97;6319328;28;20063;-69
2023/09/28 01:56:59;;;;;;;;;;;;;;;9.63;63.98;97408.22;6320392;28;20039;-69
2023/09/28 02:00:12;;;;;;;10.10;4.63;;;;;;;9.74;63.33;97405.00;6320826;28;20018;-70
2023/09/28 02:03:16;;;;;;;8.40;4.25;;;;;;;9.84;63.53;97412.31;6321007;28;20044;-69
2023/09/28 02:06:18;;;;;;;9.65;4.75;;;;;;;9.91;63.52;97407.59;6320803;28;20062;-69
2023/09/28 02:09:23;;;;;;;10.85;4.70;;;;;;;10.01;63.25;97408.78;6321082;28;20405;-69
2023/09/28 02:12:27;;;;;;;12.73;5.10;;;;;;;10.09;63.28;97416.28;6321307;28;20422;-70
2023/09/28 02:15:35;;;;;;;23.33;9.98;;;;;;;10.11;63.25;97414.41;6320793;28;20430;-70
2023/09/28 02:18:37;;;;;;;25.17;9.80;;;;;;;10.23;62.95;97415.53;6320566;28;20465;-70
2023/09/28 02:21:42;;;;;;;18.65;9.15;;;;;;;10.27;63.07;97410.03;6321009;28;20048;-71
2023/09/28 02:24:46;;;;;;;18.75;9.65;;;;;;;10.36;62.91;97408.69;6319786;28;20425;-70
2023/09/28 02:27:53;;;;;;;20.58;10.00;;;;;;;10.40;62.89;97398.84;6320925;28;20040;-70
2023/09/28 02:30:55;;;;;;;22.77;9.90;;;;;;;10.48;62.76;97401.91;6302277;28;20070;-70
2023/09/28 02:34:02;;;;;;;22.17;10.13;;;;;;;10.52;62.40;97398.13;6320735;28;20495;-70
2023/09/28 02:37:07;;;;;;;23.70;10.95;;;;;;;10.63;62.39;97401.03;6320648;28;20050;-70
2023/09/28 02:40:17;;;;;;;20.92;10.50;;;;;;;10.68;62.58;97396.34;6320522;28;20114;-70
2023/09/28 02:43:23;;;;;;;18.52;8.85;;;;;;;10.69;62.24;97405.94;6320291;28;20078;-70
2023/09/28 02:46:28;;;;;;;21.48;9.73;;;;;;;10.73;62.13;97385.56;6320039;28;20048;-70
2023/09/28 02:49:32;;;;;;;13.35;7.75;;;;;;;10.77;62.00;97387.91;6319732;28;20283;-70
2023/09/28 02:52:40;;;;;;;17.27;8.90;;;;;;;10.88;61.90;97404.91;6318254;28;20539;-70
2023/09/28 02:55:44;;;;;;;17.20;7.63;;;;;;;10.93;61.80;97402.84;6320009;28;20044;-69
2023/09/28 02:58:48;;;;;;;16.30;6.70;;;;;;;11.02;61.70;97408.41;6319952;28;20138;-70
2023/09/28 03:01:49;;;;;;;12.50;6.78;;;;;;;11.06;61.58;97403.81;6319810;28;20048;-70
2023/09/28 03:04:54;;;;;;;13.50;6.53;;;;;;;11.21;61.24;97410.84;6319522;28;20055;-70
2023/09/28 03:07:58;;;;;;;13.07;5.63;;;;;;;11.31;60.96;97418.19;6318402;28;20040;-70
2023/09/28 03:11:00;;;;;;;12.32;6.20;;;;;;;11.37;60.83;97405.50;6319712;28;20055;-70
2023/09/28 03:14:06;;;;;;;11.75;5.75;;;;;;;11.56;60.21;97413.16;6319246;28;20048;-71
2023/09/28 03:17:10;;;;;;;14.70;5.05;;;;;;;11.69;59.82;97413.25;6319570;28;20048;-70
2023/09/28 03:20:17;;;;;;;12.15;5.63;;;;;;;11.82;59.50;97408.06;6319673;28;20052;-69
2023/09/28 03:23:22;;;;;;;12.18;5.07;;;;;;;11.98;59.21;97408.03;6319134;28;20071;-70
2023/09/28 03:26:26;;;;;;;12.05;5.57;;;;;;;12.13;58.77;97418.44;6318953;28;20062;-70
2023/09/28 03:29:28;;;;;;;10.52;5.47;;;;;;;12.26;58.46;97412.44;6319171;28;20055;-71
2023/09/28 03:32:32;;;;;;;14.20;6.30;;;;;;;12.42;57.99;97418.41;6319055;28;20501;-70
2023/09/28 03:35:34;;;;;;;;;;;;;;;12.56;57.85;97415.72;6318342;28;20044;-70
2023/09/28 03:38:37;;;;;;;7.03;4.47;;;;;;;12.67;57.34;97414.22;6319397;28;19920;-71
2023/09/28 03:41:42;;;;;;;9.65;4.05;;;;;;;12.76;56.76;97416.25;6317452;28;20991;-70
2023/09/28 03:44:48;;;;;;;9.50;4.20;;;;;;;12.93;56.45;97423.91;6319059;28;20047;-70
2023/09/28 03:47:51;;;;;;;13.02;4.20;;;;;;;13.07;56.22;97435.38;6318546;28;20445;-70
2023/09/28 03:50:55;;;;;;;10.68;4.90;;;;;;;13.19;55.89;97429.25;6318738;28;20414;-70
2023/09/28 03:53:59;;;;;;;7.38;3.67;;;;;;;13.31;54.97;97428.50;6317795;28;20229;-70
2023/09/28 03:57:03;;;;;;;9.75;4.60;;;;;;;13.41;54.64;97436.66;6319140;28;20036;-69
2023/09/28 04:00:14;;;;;;;11.75;4.13;;;;;;;13.61;54.09;97437.94;6320884;28;20044;-70
2023/09/28 04:03:18;;;;;;;10.48;4.50;;;;;;;13.69;54.00;97438.25;6324153;28;20571;-70
2023/09/28 04:06:27;;;;;;;13.77;5.45;;;;;;;13.75;54.01;97440.47;6323727;28;20506;-70
2023/09/28 04:09:32;;;;;;;9.00;4.95;;;;;;;13.87;53.43;97436.13;6323087;28;20044;-69
2023/09/28 04:12:34;;;;;;;10.10;4.40;;;;;;;13.96;52.98;97445.28;6324320;28;20043;-70
2023/09/28 04:15:37;;;;;;;8.98;4.53;;;;;;;14.00;52.38;97452.03;6324952;28;20440;-70
2023/09/28 04:18:45;;;;;;;7.40;3.58;;;;;;;14.15;51.46;97448.31;6324273;28;20055;-70
2023/09/28 04:21:46;;;;;;;5.65;3.35;;;;;;;14.24;51.30;97455.63;6324790;28;20422;-69
2023/09/28 04:24:52;;;;;;;6.50;3.15;;;;;;;14.32;51.30;97447.97;6324700;28;20449;-71
2023/09/28 04:27:53;;;;;;;7.38;3.10;;;;;;;14.54;50.45;97457.06;6323473;28;20048;-69
2023/09/28 04:30:57;;;;;;;5.35;2.88;;;;;;;14.60;50.37;97448.66;6324230;28;20043;-68
2023/09/28 04:33:58;;;;;;;4.63;2.55;;;;;;;14.84;49.90;97447.88;6323771;28;20097;-68
2023/09/28 04:37:03;;;;;;;3.70;3.03;;;;;;;15.01;49.31;97442.19;6321776;28;20403;-70
2023/09/28 04:40:05;;;;;;;6.70;2.65;;;;;;;15.17;49.01;97450.69;6322751;28;20048;-69
2023/09/28 04:43:08;;;;;;;8.15;2.80;;;;;;;15.45;48.24;97453.91;6321340;28;20070;-69
2023/09/28 04:46:12;;;;;;;6.93;2.78;;;;;;;15.71;47.59;97460.78;6323077;28;20151;-70
2023/09/28 04:49:19;;;;;;;5.97;2.50;;;;;;;15.90;47.29;97468.16;6323270;28;20040;-69
2023/09/28 04:52:24;;;;;;;4.88;2.35;;;;;;;16.05;46.59;97474.13;6323003;28;20039;-69
2023/09/28 04:55:28;;;;;;;3.78;2.67;;;;;;;16.10;46.33;97469.28;6321198;28;20046;-71
2023/09/28 04:58:32;;;;;;;5.80;2.58;;;;;;;16.25;46.07;97474.34;6322647;28;20055;-70
2023/09/28 05:01:35;;;;;;;;;;;;;;;16.74;45.53;97478.44;6322572;28;20082;-70
2023/09/28 05:04:39;;;;;;;6.60;2.55;;;;;;;17.05;44.19;97485.66;6322057;28;19920;-70
2023/09/28 05:07:42;;;;;;;4.45;2.53;;;;;;;17.39;43.58;97488.22;6322367;28;20055;-70
2023/09/28 05:10:46;;;;;;;5.90;3.05;;;;;;;17.76;42.82;97487.81;6322384;28;20039;-69
2023/09/28 05:13:51;;;;;;;5.50;2.22;;;;;;;18.13;42.17;97490.03;6322430;28;20122;-70
2023/09/28 05:16:58;;;;;;;5.60;2.80;;;;;;;18.65;40.93;97493.50;6321730;28;20074;-69
2023/09/28 05:20:04;;;;;;;5.60;2.60;;;;;;;19.09;39.61;97491.41;6321263;28;20520;-69
2023/09/28 05:23:06;;;;;;;9.63;2.33;;;;;;;19.36;38.69;97492.56;6321915;28;20052;-69
2023/09/28 05:26:08;;;;;;;5.18;2.00;;;;;;;19.59;37.78;97499.34;6321693;28;20105;-70
2023/09/28 05:29:13;;;;;;;3.58;1.77;;;;;;;19.53;38.15;97489.19;6321745;28;20417;-69
2023/09/28 05:32:17;;;;;;;4.13;2.00;;;;;;;19.54;38.05;97506.06;6321592;28;20075;-69
2023/09/28 05:35:22;;;;;;;4.43;2.15;;;;;;;19.42;37.06;97502.66;6321905;28;20050;-69
2023/09/28 05:38:26;;;;;;;6.38;2.20;;;;;;;19.32;37.26;97491.16;6321805;28;20043;-69
2023/09/28 05:41:31;;;;;;;2.90;1.40;;;;;;;20.05;36.15;97494.25;6320534;28;20082;-70
2023/09/28 05:44:32;;;;;;;5.13;2.08;;;;;;;21.23;33.97;97496.31;6321365;28;20054;-69
2023/09/28 05:47:34;;;;;;;4.00;1.63;;;;;;;25.01;29.40;97492.91;6322684;28;20046;-68
2023/09/28 05:50:38;;;;;;;4.60;1.42;;;;;;;29.74;23.99;97486.59;6320569;28;20044;-68
2023/09/28 05:53:40;;;;;;;6.38;2.05;;;;;;;32.11;21.14;97500.84;6321402;28;20044;-69
2023/09/28 05:56:41;;;;;;;6.55;2.00;;;;;;;32.92;20.07;97499.03;6321209;28;20047;-68
2023/09/28 05:59:42;;;;;;;4.95;1.85;;;;;;;33.46;19.58;97500.09;6321343;28;20429;-68
2023/09/28 06:02:47;;;;;;;7.18;1.88;;;;;;;32.51;20.20;97503.25;6320733;28;20044;-68
2023/09/28 06:05:49;;;;;;;6.88;1.85;;;;;;;30.83;20.43;97496.22;6320024;28;20093;-68
2023/09/28 06:08:53;;;;;;;5.25;2.20;;;;;;;31.15;20.60;97504.47;6320988;28;20093;-68
2023/09/28 06:11:57;;;;;;;3.50;1.75;;;;;;;30.49;20.30;97499.16;6320952;28;20040;-69
2023/09/28 06:15:04;;;;;;;5.03;1.85;;;;;;;29.58;21.08;97494.25;6321088;28;20052;-70
2023/09/28 06:18:11;;;;;;;4.20;1.98;;;;;;;32.51;19.08;97503.25;6320795;28;20040;-69
2023/09/28 06:21:12;;;;;;;4.65;1.73;;;;;;;35.70;16.10;97498.31;6320957;28;20414;-67
2023/09/28 06:24:16;;;;;;;6.03;1.77;;;;;;;37.13;14.31;97501.72;6319857;28;20122;-69
2023/09/28 06:27:17;;;;;;;3.65;1.98;;;;;;;38.90;13.59;97502.91;6320738;28;19924;-69
2023/09/28 06:30:26;;;;;;;4.75;1.63;;;;;;;40.06;12.40;97504.47;6320935;28;20070;-69
2023/09/28 06:33:30;;;;;;;3.85;0.75;;;;;;;41.03;11.79;97492.53;6320644;28;20052;-69
2023/09/28 06:36:34;;;;;;;1.40;1.10;;;;;;;39.71;12.06;97489.50;6320451;28;20041;-69
2023/09/28 06:39:40;;;;;;;5.95;1.52;;;;;;;37.00;12.90;97481.78;6319935;28;20059;-69
2023/09/28 06:42:44;;;;;;;3.00;0.82;;;;;;;33.88;14.70;97463.81;6319725;28;20044;-69
2023/09/28 06:45:46;;;;;;;3.95;1.20;;;;;;;31.46;16.60;97456.66;6320350;28;20047;-70
2023/09/28 06:48:50;;;;;;;5.95;1.58;;;;;;;34.27;14.46;97472.47;6319020;28;20475;-69
2023/09/28 06:51:55;;;;;;;3.58;1.00;;;;;;;32.76;15.59;97458.78;6320267;28;20741;-68
2023/09/28 06:54:57;;;;;;;2.33;1.20;;;;;;;29.72;17.55;97455.28;6318782;28;20134;-68
2023/09/28 06:58:06;;;;;;;1.33;0.85;;;;;;;27.21;20.08;97435.34;6320008;28;20036;-68
2023/09/28 07:01:13;;;;;;;1.77;1.20;;;;;;;25.16;21.72;97435.66;6320005;28;20122;-68
2023/09/28 07:04:22;;;;;;;2.72;1.10;;;;;;;23.45;23.79;97422.41;6319983;28;20100;-70
2023/09/28 07:07:29;;;;;;;4.85;1.40;;;;;;;22.76;24.45;97428.94;6319766;28;20047;-68
2023/09/28 07:10:34;;;;;;;5.25;1.85;;;;;;;22.34;24.86;97433.31;6317627;28;20177;-68
2023/09/28 07:13:39;;;;;;;4.80;1.30;;;;;;;26.43;20.98;97443.00;6319641;28;20106;-67
2023/09/28 07:16:41;;;;;;;2.28;1.05;;;;;;;29.93;17.73;97451.56;6318815;28;20059;-68
2023/09/28 07:19:42;;;;;;;2.08;1.40;;;;;;;31.93;15.75;97444.44;6319338;28;20043;-68
2023/09/28 07:22:44;;;;;;;2.42;0.98;;;;;;;30.27;16.58;97442.41;6319129;28;20075;-68
2023/09/28 07:25:50;;;;;;;2.65;1.10;;;;;;;27.45;18.63;97442.22;6318327;28;20052;-68
2023/09/28 07:28:56;;;;;;;1.45;1.23;;;;;;;25.27;20.57;97429.84;6318408;28;20048;-69
2023/09/28 07:32:00;;;;;;;4.70;1.85;;;;;;;23.53;22.90;97437.72;6319406;28;20036;-69
2023/09/28 07:35:05;;;;;;;3.47;1.83;;;;;;;22.25;25.25;97439.63;6319213;28;20040;-69
2023/09/28 07:38:08;;;;;;;4.55;1.67;;;;;;;21.00;26.80;97432.50;6319174;28;20040;-69
2023/09/28 07:41:10;;;;;;;2.72;1.70;;;;;;;20.09;27.89;97431.53;6318518;28;20078;-70
2023/09/28 07:44:11;;;;;;;5.25;1.40;;;;;;;20.25;27.67;97436.28;6318283;28;20040;-69
2023/09/28 07:47:18;;;;;;;2.97;1.98;;;;;;;20.52;27.88;97433.63;6317584;28;20044;-70
2023/09/28 07:50:23;;;;;;;2.90;1.50;;;;;;;20.64;27.56;97426.28;6318865;28;20044;-70
2023/09/28 07:53:25;;;;;;;4.18;1.90;;;;;;;21.06;27.03;97426.59;6319081;28;20040;-69
2023/09/28 07:56:28;;;;;;;2.03;1.30;;;;;;;21.00;26.98;97427.16;6319076;28;20201;-70
2023/09/28 07:59:33;;;;;;;2.33;1.38;;;;;;;20.79;27.47;97432.78;6318648;28;20528;-70
2023/09/28 08:02:38;;;;;;;3.00;1.70;;;;;;;20.84;27.05;97427.00;6318571;28;20505;-70
2023/09/28 08:05:44;;;;;;;2.17;1.60;;;;;;;20.68;27.41;97424.97;6318788;28;20060;-70
2023/09/28 08:08:48;;;;;;;4.78;2.28;;;;;;;20.71;27.71;97426.50;6318938;28;20501;-70
2023/09/28 08:11:50;;;;;;;3.75;1.98;;;;;;;20.79;27.31;97423.94;6318715;28;20514;-70
2023/09/28 08:14:56;;;;;;;3.20;1.90;;;;;;;21.01;27.11;97428.88;6318961;28;20409;-71
2023/09/28 08:18:01;;;;;;;4.28;1.63;;;;;;;21.82;25.84;97422.56;6318991;28;20044;-69
2023/09/28 08:21:03;;;;;;;2.75;1.92;;;;;;;22.22;25.30;97423.00;6318893;28;20043;-70
2023/09/28 08:24:06;;;;;;;3.58;1.75;;;;;;;22.45;25.29;97424.16;6318274;28;20051;-68
2023/09/28 08:27:07;;;;;;;4.65;1.73;;;;;;;22.34;25.44;97411.84;6317943;28;20051;-69
2023/09/28 08:30:12;;;;;;;3.53;2.47;;;;;;;22.22;25.69;97429.19;6318701;28;20051;-70
2023/09/28 08:33:16;;;;;;;9.50;5.55;;;;;;;23.27;24.90;97424.44;6318736;28;20036;-69
2023/09/28 08:36:17;;;;;;;4.57;3.28;;;;;;;25.34;22.82;97425.44;6316846;28;20555;-68
2023/09/28 08:39:19;;;;;;;4.65;2.40;;;;;;;28.16;19.85;97426.00;6318455;28;20047;-68
2023/09/28 08:42:28;;;;;;;3.88;1.83;;;;;;;30.66;17.67;97429.78;6318558;28;20596;-69
2023/09/28 08:45:32;;;;;;;2.90;2.22;;;;;;;32.67;16.19;97435.59;6318474;28;20430;-69
2023/09/28 08:48:40;;;;;;;3.70;2.50;;;;;;;33.99;14.99;97439.25;6323212;28;20040;-69
2023/09/28 08:51:44;;;;;;;2.72;1.02;;;;;;;32.94;15.38;97426.03;6323154;28;20036;-69
2023/09/28 08:54:45;;;;;;;2.83;1.35;;;;;;;30.27;17.07;97430.72;6322424;28;20535;-69
2023/09/28 08:57:51;;;;;;;2.08;1.42;;;;;;;28.93;18.38;97424.19;6323028;28;20040;-69
2023/09/28 09:00:56;;;;;;;1.75;1.40;;;;;;;26.95;19.77;97413.38;6322291;28;20093;-69
2023/09/28 09:04:00;;;;;;;1.98;1.20;;;;;;;24.62;22.11;97415.69;6322879;28;20416;-70
2023/09/28 09:07:05;;;;;;;2.08;1.52;;;;;;;23.75;22.96;97412.06;6322640;28;20060;-70
2023/09/28 09:10:12;;;;;;;3.47;1.95;;;;;;;26.76;20.17;97406.72;6322238;28;20043;-69
2023/09/28 09:13:20;;;;;;;3.58;1.77;;;;;;;29.71;17.97;97418.38;6322870;28;20044;-68
2023/09/28 09:16:26;;;;;;;4.70;1.60;;;;;;;31.28;16.36;97417.41;6322471;28;20039;-70
2023/09/28 09:19:33;;;;;;;2.03;1.27;;;;;;;30.18;17.25;97427.34;6322095;28;20056;-68
2023/09/28 09:22:39;;;;;;;1.75;0.88;;;;;;;28.06;18.31;97406.59;6322989;28;20413;-69
2023/09/28 09:25:44;;;;;;;1.75;0.88;;;;;;;25.75;20.69;97417.03;6322269;28;20048;-69
2023/09/28 09:28:48;;;;;;;2.63;1.13;;;;;;;28.15;18.79;97410.81;6321833;28;20044;-68
2023/09/28 09:31:52;;;;;;;5.47;1.10;;;;;;;31.91;15.52;97421.22;6322201;28;20036;-69
2023/09/28 09:34:55;;;;;;;2.65;1.15;;;;;;;33.94;14.60;97424.66;6322136;28;20074;-69
2023/09/28 09:38:03;;;;;;;1.65;1.15;;;;;;;33.74;14.45;97431.28;6321975;28;20157;-68
2023/09/28 09:41:05;;;;;;;1.83;1.00;;;;;;;31.89;15.82;97418.69;6321281;28;20044;-69
2023/09/28 09:44:11;;;;;;;5.07;2.22;;;;;;;29.68;17.34;97416.09;6321915;28;20040;-68
2023/09/28 09:47:19;;;;;;;2.58;0.93;;;;;;;28.26;18.43;97408.63;6321892;28;20052;-68
2023/09/28 09:50:28;;;;;;;2.30;1.30;;;;;;;27.24;19.61;97421.44;6321327;28;20170;-68
2023/09/28 09:53:34;;;;;;;3.33;1.23;;;;;;;26.07;20.56;97424.03;6321817;28;20084;-68
2023/09/28 09:56:39;;;;;;;2.70;1.63;;;;;;;24.69;22.00;97426.63;6320392;28;20048;-69
2023/09/28 09:59:48;;;;;;;2.22;1.10;;;;;;;23.52;23.64;97419.88;6321129;28;20425;-69
2023/09/28 10:02:55;;;;;;;3.38;1.30;;;;;;;22.66;24.25;97415.69;6320781;28;20044;-70
2023/09/28 10:06:02;;;;;;;1.98;1.20;;;;;;;22.05;25.43;97416.69;6320630;28;20561;-69
2023/09/28 10:09:05;;;;;;;1.95;1.13;;;;;;;23.84;23.52;97415.56;6321089;28;20044;-69
2023/09/28 10:12:08;;;;;;;4.20;1.60;;;;;;;26.39;20.59;97408.50;6320701;28;20058;-68
2023/09/28 10:15:10;;;;;;;3.00;1.50;;;;;;;28.86;18.59;97423.31;6320812;28;20043;-70
2023/09/28 10:18:14;;;;;;;0.98;0.88;;;;;;;30.97;16.63;97439.94;6319435;28;20047;-67
2023/09/28 10:21:21;;;;;;;3.70;0.98;;;;;;;30.24;16.91;97437.41;6320802;28;20048;-68
2023/09/28 10:24:35;;;;;;;2.25;0.98;;;;;;;28.88;18.07;97423.97;6317121;28;20417;-69
2023/09/28 10:27:43;;;;;;;3.58;1.48;;;;;;;27.51;19.40;97411.72;6320546;28;20048;-70
2023/09/28 10:31:00;;;;;;;2.67;1.25;;;;;;;25.85;21.15;97414.13;6320625;28;20044;-69
2023/09/28 10:34:08;;;;;;;1.88;1.13;;;;;;;25.29;21.29;97417.06;6320064;28;20044;-69
2023/09/28 10:37:15;;;;;;;3.75;1.50;;;;;;;24.88;22.10;97425.34;6320409;28;20126;-69
2023/09/28 10:40:21;;;;;;;3.25;1.05;;;;;;;23.98;22.92;97413.03;6320500;28;20040;-70
2023/09/28 10:43:29;;;;;;;4.68;1.30;;;;;;;23.31;23.72;97428.44;6320297;28;20040;-70
2023/09/28 10:46:33;;;;;;;5.05;1.45;;;;;;;22.33;24.86;97417.38;6319759;28;20452;-71
2023/09/28 10:49:34;;;;;;;1.55;0.88;;;;;;;21.45;25.95;97418.25;6320069;28;20051;-70
2023/09/28 10:52:38;;;;;;;1.15;0.80;;;;;;;20.83;26.91;97433.31;6320362;28;20040;-69
2023/09/28 10:55:41;;;;;;;1.42;0.80;;;;;;;20.37;27.65;97421.72;6320095;28;20039;-70
2023/09/28 10:58:48;;;;;;;3.42;0.82;;;;;;;20.00;27.83;97424.38;6319875;28;20117;-70
2023/09/28 11:01:54;;;;;;;5.45;1.17;;;;;;;19.87;28.29;97416.69;6319811;28;20040;-70
2023/09/28 11:04:56;;;;;;;6.03;0.90;;;;;;;19.91;28.34;97423.44;6319667;28;20074;-70
2023/09/28 11:08:03;;;;;;;1.00;0.80;;;;;;;19.80;28.22;97427.09;6319488;28;20044;-69
2023/09/28 11:11:14;;;;;;;2.58;1.05;;;;;;;19.66;28.67;97425.72;6319921;28;20048;-69
2023/09/28 11:14:20;;;;;;;2.17;1.10;;;;;;;19.62;28.74;97420.78;6319748;28;20051;-69
2023/09/28 11:17:26;;;;;;;4.78;1.35;;;;;;;19.50;28.79;97409.41;6319238;28;20056;-69
2023/09/28 11:20:33;;;;;;;1.60;1.10;;;;;;;19.42;28.89;97420.81;6319155;28;20047;-69
2023/09/28 11:23:40;;;;;;;2.78;1.05;;;;;;;19.21;29.53;97426.28;6319459;28;20532;-69
2023/09/28 11:26:45;;;;;;;5.10;2.67;;;;;;;19.04;29.88;97424.28;6318987;28;20055;-69
2023/09/28 11:29:55;;;;;;;4.80;2.03;;;;;;;18.79;30.71;97415.84;6319051;28;20528;-70
2023/09/28 11:33:02;;;;;;;8.35;2.15;;;;;;;18.74;31.10;97418.09;6318493;28;20410;-70
2023/09/28 11:36:12;;;;;;;5.53;1.75;;;;;;;18.57;31.45;97432.00;6319463;28;20413;-70
2023/09/28 11:39:17;;;;;;;5.15;2.38;;;;;;;18.55;31.66;97426.00;6319497;28;20051;-71
2023/09/28 11:42:23;;;;;;;2.78;1.63;;;;;;;18.52;31.45;97428.94;6318259;28;20067;-71
2023/09/28 11:45:31;;;;;;;3.53;1.90;;;;;;;18.48;31.46;97419.50;6319122;28;20036;-70
2023/09/28 11:48:34;;;;;;;2.97;1.35;;;;;;;18.53;31.21;97419.97;6319227;28;20040;-70
2023/09/28 11:51:39;;;;;;;3.67;1.48;;;;;;;18.39;31.81;97424.66;6319137;28;20039;-70
2023/09/28 11:54:41;;;;;;;3.13;1.42;;;;;;;18.47;31.45;97420.50;6318700;28;20370;-70
2023/09/28 11:57:45;;;;;;;6.07;3.17;;;;;;;18.40;31.41;97421.06;6318769;28;20047;-70
2023/09/28 12:00:49;;;;;;;3.17;2.08;;;;;;;18.45;31.53;97417.97;6318362;28;20056;-70
2023/09/28 12:03:50;;;;;;;;;;;;;;;18.58;31.34;97417.72;6318579;28;20052;-69
2023/09/28 12:06:51;;;;;;;2.83;1.40;;;;;;;18.36;31.28;97418.78;6318312;28;19927;-69
2023/09/28 12:09:58;;;;;;;4.03;1.45;;;;;;;18.15;31.89;97419.69;6318823;28;20052;-70
2023/09/28 12:13:05;;;;;;;2.35;1.23;;;;;;;17.95;31.77;97416.09;6318995;28;20044;-70
2023/09/28 12:16:09;;;;;;;2.22;1.20;;;;;;;17.81;32.24;97413.75;6318289;28;20071;-70
2023/09/28 12:19:13;;;;;;;2.60;1.33;;;;;;;17.77;32.46;97417.63;6321650;28;20052;-70
2023/09/28 12:22:18;;;;;;;3.03;1.50;;;;;;;17.74;32.06;97428.53;6323796;28;20040;-70
2023/09/28 12:25:27;;;;;;;3.55;1.40;;;;;;;17.53;32.44;97430.38;6324077;28;20493;-70
2023/09/28 12:28:33;;;;;;;6.05;1.55;;;;;;;17.40;33.21;97420.72;6324021;28;20040;-69
2023/09/28 12:31:35;;;;;;;;;;;;;;;17.27;33.33;97425.41;6323684;28;20040;-69
2023/09/28 12:34:38;;;;;;;3.17;1.92;;;;;;;17.09;34.02;97432.22;6323432;28;19930;-70
2023/09/28 12:37:44;;;;;;;3.17;1.60;;;;;;;16.86;34.31;97420.84;6323087;28;20056;-69
2023/09/28 12:40:48;;;;;;;2.45;1.60;;;;;;;16.71;34.75;97420.25;6323146;28;20501;-69
2023/09/28 12:43:49;;;;;;;2.55;1.50;;;;;;;16.72;34.72;97420.09;6322658;28;20548;-71
2023/09/28 12:46:52;;;;;;;3.00;1.70;;;;;;;16.68;34.87;97423.16;6322749;28;20047;-69
2023/09/28 12:49:56;;;;;;;3.38;2.10;;;;;;;16.64;34.31;97421.69;6323332;28;20127;-70
2023/09/28 12:53:01;;;;;;;5.50;1.58;;;;;;;16.46;34.29;97418.72;6322780;28;20043;-71
2023/09/28 12:56:09;;;;;;;2.08;1.52;;;;;;;16.36;34.74;97413.28;6323085;28;20047;-70
2023/09/28 12:59:10;;;;;;;2.67;1.75;;;;;;;16.31;34.80;97418.13;6322841;28;20044;-70
2023/09/28 13:02:16;;;;;;;4.28;1.92;;;;;;;16.23;35.00;97426.69;6322619;28;20059;-70
2023/09/28 13:05:19;;;;;;;5.82;4.18;;;;;;;16.04;35.35;97424.63;6321572;28;20105;-70
2023/09/28 13:08:25;;;;;;;6.47;3.00;;;;;;;15.92;35.89;97425.59;6322244;28;20063;-70
2023/09/28 13:11:29;;;;;;;6.05;2.20;;;;;;;15.88;35.86;97432.09;6321954;28;20056;-70
2023/09/28 13:14:36;;;;;;;3.35;1.80;;;;;;;15.76;36.21;97430.38;6322299;28;20048;-71
2023/09/28 13:17:39;;;;;;;3.60;2.25;;;;;;;15.59;36.63;97434.31;6321636;28;20067;-70
2023/09/28 13:20:43;;;;;;;3.90;2.30;;;;;;;15.53;36.86;97438.25;6322213;28;20044;-70
2023/09/28 13:23:50;;;;;;;3.80;2.60;;;;;;;15.41;37.11;97440.03;6321734;28;20442;-70
2023/09/28 13:27:00;;;;;;;4.25;2.60;;;;;;;15.25;37.52;97432.38;6322312;28;20055;-69
2023/09/28 13:30:08;;;;;;;6.00;2.65;;;;;;;15.15;37.80;97426.09;6321502;28;20422;-69
2023/09/28 13:33:10;;;;;;;12.00;3.70;;;;;;;15.01;38.29;97424.47;6321647;28;20048;-69
2023/09/28 13:36:18;;;;;;;10.38;3.72;;;;;;;14.71;38.89;97416.97;6322840;28;20055;-69
2023/09/28 13:39:36;;;;;;;9.32;3.05;;;;;;;14.64;38.92;97430.78;6322955;28;20101;-70
2023/09/28 13:42:40;;;;;;;14.80;3.53;;;;;;;14.51;39.59;97436.06;6323024;28;20051;-70
2023/09/28 13:45:47;;;;;;;14.95;3.67;;;;;;;14.37;39.67;97435.25;6323127;28;20413;-71
2023/09/28 13:48:55;;;;;;;12.45;3.38;;;;;;;14.23;40.19;97437.19;6322055;28;20052;-69
2023/09/28 13:51:59;;;;;;;18.50;10.30;;;;;;;14.08;40.54;97434.66;6321781;28;20047;-69
2023/09/28 13:55:06;;;;;;;14.30;4.68;;;;;;;14.02;40.77;97439.53;6322273;28;20051;-68
2023/09/28 13:58:17;;;;;;;7.68;3.20;;;;;;;13.86;41.26;97435.31;6321631;28;20094;-70
2023/09/28 14:01:21;;;;;;;5.00;3.00;;;;;;;13.76;41.50;97439.56;6321982;28;20181;-71
2023/09/28 14:04:26;;;;;;;;;;;;;;;13.62;41.19;97442.28;6321997;28;20478;-70
2023/09/28 14:07:29;;;;;;;7.13;2.90;;;;;;;13.62;41.87;97439.66;6320602;28;20345;-70
2023/09/28 14:10:37;;;;;;;10.83;3.97;;;;;;;13.58;42.12;97440.78;6320687;28;20186;-70
2023/09/28 14:13:41;;;;;;;11.13;4.30;;;;;;;13.49;42.34;97436.97;6320919;28;20052;-70
2023/09/28 14:16:45;;;;;;;12.02;5.03;;;;;;;13.47;42.61;97441.50;6321114;28;20131;-70
2023/09/28 14:19:49;;;;;;;;;;;;;;;13.46;42.45;97443.31;6321292;28;20134;-70
2023/09/28 14:22:54;;;;;;;19.70;8.68;;;;;;;13.28;43.27;97441.91;6320811;28;19919;-70
2023/09/28 14:25:56;;;;;;;18.67;10.10;;;;;;;13.12;43.52;97444.69;6320283;28;20075;-70
2023/09/28 14:29:03;;;;;;;;;;;;;;;13.08;43.14;97445.84;6321213;28;20040;-70
2023/09/28 14:32:07;;;;;;;20.40;10.63;;;;;;;13.03;43.43;97450.59;6320677;28;19919;-70